Time;durP1;ratioP1;P1;durP2;ratioP2;P2;SDS_P1;SDS_P2;PMS_P1;PMS_P2;Temp;Humidity;BMP_temperature;BMP_pressure;BME280_temperature;BME280_humidity;BME280_pressure;Samples;Min_cycle;Max_cycle;Signal;HPM_P1;HPM_P2
2024/03/31 05:07:33;;;;;;;0.30;0.30;;;8.00;99.90;;;;;;5057566;23;20262;-60
2024/03/31 05:09:59;;;;;;;0.30;0.30;;;8.00;99.90;;;;;;4918372;29;20261;-60
2024/03/31 05:12:24;;;;;;;0.30;0.30;;;8.00;99.90;;;;;;4918356;29;20264;-61
2024/03/31 05:14:51;;;;;;;0.30;0.30;;;7.90;99.90;;;;;;4918170;29;20220;-61
2024/03/31 05:17:17;;;;;;;0.40;0.40;;;7.90;99.90;;;;;;4918360;29;20687;-61
2024/03/31 05:19:42;;;;;;;0.40;0.40;;;7.90;99.90;;;;;;4918473;29;20260;-62
2024/03/31 05:22:08;;;;;;;0.30;0.30;;;7.90;99.90;;;;;;4918166;29;20174;-61
2024/03/31 05:24:33;;;;;;;0.30;0.30;;;8.00;99.90;;;;;;4917696;29;20185;-60
2024/03/31 05:26:59;;;;;;;0.30;0.30;;;8.00;99.90;;;;;;4918057;29;20196;-61
2024/03/31 05:29:25;;;;;;;0.30;0.30;;;8.00;99.90;;;;;;4917893;29;20175;-60
2024/03/31 05:31:50;;;;;;;0.40;0.40;;;8.00;99.90;;;;;;4917996;29;20204;-61
2024/03/31 05:34:16;;;;;;;0.30;0.30;;;8.10;99.90;;;;;;4917864;29;20185;-61
2024/03/31 05:36:41;;;;;;;0.30;0.30;;;8.20;99.90;;;;;;4916526;29;20732;-60
2024/03/31 05:39:07;;;;;;;0.33;0.33;;;8.20;99.90;;;;;;4917674;29;20531;-61
2024/03/31 05:41:33;;;;;;;0.30;0.30;;;8.20;99.90;;;;;;4917600;29;20241;-60
2024/03/31 05:43:58;;;;;;;0.30;0.30;;;8.20;99.90;;;;;;4917907;29;20178;-60
2024/03/31 05:46:24;;;;;;;0.60;0.50;;;8.20;99.90;;;;;;4916507;29;20264;-59
2024/03/31 05:48:50;;;;;;;0.40;0.40;;;8.30;99.90;;;;;;4917900;29;20170;-60
2024/03/31 05:51:16;;;;;;;0.30;0.30;;;8.40;99.90;;;;;;4917490;29;20178;-60
2024/03/31 05:53:42;;;;;;;0.30;0.30;;;8.40;99.90;;;;;;4917468;29;20181;-62
2024/03/31 05:56:07;;;;;;;0.30;0.30;;;8.40;99.90;;;;;;4916978;29;20673;-62
2024/03/31 05:58:33;;;;;;;0.40;0.40;;;8.40;99.90;;;;;;4917713;29;20620;-60
2024/03/31 06:00:59;;;;;;;0.30;0.30;;;8.50;99.90;;;;;;4917318;29;20170;-60
2024/03/31 06:03:24;;;;;;;0.40;0.40;;;8.60;99.90;;;;;;4917486;29;20198;-61
2024/03/31 06:05:50;;;;;;;0.30;0.30;;;8.60;99.90;;;;;;4917164;29;20174;-62
2024/03/31 06:08:15;;;;;;;0.30;0.30;;;8.70;99.90;;;;;;4917038;29;20308;-62
2024/03/31 06:10:41;;;;;;;0.30;0.30;;;8.80;99.90;;;;;;4917302;29;20233;-59
2024/03/31 06:13:06;;;;;;;0.30;0.30;;;8.90;99.90;;;;;;4917338;29;20200;-61
2024/03/31 06:15:32;;;;;;;0.30;0.30;;;9.00;99.90;;;;;;4916771;29;20265;-62
2024/03/31 06:17:58;;;;;;;0.37;0.37;;;9.00;99.90;;;;;;4917010;29;20534;-62
2024/03/31 06:20:25;;;;;;;0.30;0.30;;;9.10;99.90;;;;;;4917153;29;20564;-61
2024/03/31 06:22:51;;;;;;;0.30;0.30;;;9.10;99.90;;;;;;4917252;29;20201;-61
2024/03/31 06:25:16;;;;;;;0.30;0.30;;;9.10;99.90;;;;;;4915625;29;20174;-62
2024/03/31 06:27:42;;;;;;;0.30;0.30;;;9.10;99.90;;;;;;4916958;29;20196;-59
2024/03/31 06:30:08;;;;;;;0.43;0.43;;;9.20;99.90;;;;;;4917499;29;20537;-60
2024/03/31 06:32:34;;;;;;;0.30;0.30;;;9.30;99.90;;;;;;4916931;29;20186;-60
2024/03/31 06:34:59;;;;;;;0.30;0.30;;;9.40;99.90;;;;;;4916675;29;20209;-59
2024/03/31 06:37:25;;;;;;;0.30;0.30;;;9.60;99.90;;;;;;4915577;29;20241;-61
2024/03/31 06:39:51;;;;;;;0.30;0.30;;;9.70;99.90;;;;;;4916976;29;20199;-63
2024/03/31 06:42:17;;;;;;;0.40;0.40;;;10.10;99.90;;;;;;4916961;29;20248;-59
2024/03/31 06:44:43;;;;;;;0.30;0.30;;;10.50;99.90;;;;;;4916655;29;20180;-62
2024/03/31 06:47:09;;;;;;;0.30;0.30;;;11.00;99.90;;;;;;4916781;29;20431;-62
2024/03/31 06:49:35;;;;;;;0.40;0.40;;;11.50;99.90;;;;;;4916934;29;20540;-64
2024/03/31 06:52:02;;;;;;;0.50;0.50;;;11.90;99.90;;;;;;4916722;29;20454;-61
2024/03/31 06:54:27;;;;;;;0.30;0.30;;;12.10;99.90;;;;;;4916746;29;20485;-62
2024/03/31 06:56:53;;;;;;;0.30;0.30;;;12.40;99.90;;;;;;4918073;29;20833;-63
2024/03/31 06:59:18;;;;;;;0.30;0.30;;;12.60;99.90;;;;;;4919335;29;20273;-63
2024/03/31 07:01:44;;;;;;;0.30;0.20;;;13.00;99.90;;;;;;4920477;29;20171;-62
2024/03/31 07:04:09;;;;;;;0.30;0.30;;;13.30;99.90;;;;;;4920733;29;20186;-61
2024/03/31 07:06:35;;;;;;;0.30;0.30;;;13.40;99.90;;;;;;4920324;29;20202;-62
2024/03/31 07:09:01;;;;;;;0.30;0.30;;;13.30;99.90;;;;;;4920385;29;20688;-60
2024/03/31 07:11:27;;;;;;;0.30;0.30;;;13.20;99.90;;;;;;4920315;29;20170;-62
2024/03/31 07:13:53;;;;;;;0.30;0.30;;;13.30;99.90;;;;;;4920494;29;20514;-62
2024/03/31 07:16:19;;;;;;;0.30;0.30;;;13.50;99.90;;;;;;4919871;29;20509;-60
2024/03/31 07:18:44;;;;;;;0.30;0.30;;;13.50;99.90;;;;;;4920431;29;20382;-61
2024/03/31 07:21:10;;;;;;;0.30;0.20;;;13.60;99.90;;;;;;4920221;29;20179;-62
2024/03/31 07:23:35;;;;;;;0.30;0.30;;;13.70;99.90;;;;;;4920216;29;20643;-64
2024/03/31 07:26:01;;;;;;;0.30;0.30;;;13.90;99.90;;;;;;4919730;29;20591;-63
2024/03/31 07:28:27;;;;;;;0.30;0.30;;;14.10;99.90;;;;;;4920205;29;20184;-63
2024/03/31 07:30:53;;;;;;;0.30;0.30;;;14.50;99.90;;;;;;4920034;29;20417;-61
2024/03/31 07:33:19;;;;;;;0.30;0.30;;;15.00;99.90;;;;;;4920052;29;20173;-63
2024/03/31 07:35:45;;;;;;;0.30;0.30;;;15.30;99.90;;;;;;4919599;29;20948;-64
2024/03/31 07:38:10;;;;;;;0.30;0.30;;;15.50;99.90;;;;;;4919753;29;20194;-62
2024/03/31 07:40:36;;;;;;;0.30;0.30;;;15.90;99.90;;;;;;4920307;29;20189;-62
2024/03/31 07:43:02;;;;;;;0.30;0.30;;;16.20;99.90;;;;;;4919909;29;20185;-64
2024/03/31 07:45:28;;;;;;;0.40;0.40;;;16.50;99.90;;;;;;4919411;29;20178;-63
2024/03/31 07:47:54;;;;;;;0.30;0.30;;;17.00;99.90;;;;;;4919694;29;20454;-63
2024/03/31 07:50:19;;;;;;;0.30;0.30;;;17.60;99.90;;;;;;4919693;29;20187;-64
2024/03/31 07:52:46;;;;;;;0.40;0.40;;;18.30;99.90;;;;;;4919783;29;20176;-63
2024/03/31 07:55:11;;;;;;;0.50;0.33;;;18.90;99.90;;;;;;4919346;29;20202;-60
2024/03/31 07:57:37;;;;;;;0.30;0.30;;;19.40;99.00;;;;;;4919445;29;20760;-60
2024/03/31 08:00:03;;;;;;;0.40;0.40;;;20.00;96.90;;;;;;4919622;29;20185;-64
2024/03/31 08:02:29;;;;;;;0.30;0.30;;;20.60;96.70;;;;;;4918264;29;20482;-61
2024/03/31 08:04:54;;;;;;;0.30;0.20;;;21.30;95.30;;;;;;4919162;29;20425;-60
2024/03/31 08:07:20;;;;;;;0.40;0.40;;;21.90;93.20;;;;;;4918979;29;20249;-61
2024/03/31 08:09:46;;;;;;;0.30;0.30;;;22.30;93.30;;;;;;4918799;29;20186;-63
2024/03/31 08:12:12;;;;;;;0.30;0.30;;;22.30;92.40;;;;;;4919405;29;20183;-61
2024/03/31 08:14:38;;;;;;;0.60;0.50;;;22.40;92.10;;;;;;4919161;29;20774;-63
2024/03/31 08:17:03;;;;;;;0.67;0.50;;;22.60;91.40;;;;;;4919094;29;20193;-63
2024/03/31 08:19:29;;;;;;;0.30;0.30;;;22.60;91.10;;;;;;4919312;29;20174;-63
2024/03/31 08:21:55;;;;;;;0.40;0.40;;;22.30;91.30;;;;;;4919134;29;20178;-62
2024/03/31 08:24:20;;;;;;;0.43;0.43;;;22.20;91.60;;;;;;4919110;29;20695;-59
2024/03/31 08:26:46;;;;;;;0.53;0.53;;;22.20;91.30;;;;;;4918610;29;20203;-61
2024/03/31 08:29:12;;;;;;;2.20;0.43;;;21.90;91.00;;;;;;4919094;29;20638;-63
2024/03/31 08:31:37;;;;;;;0.30;0.30;;;21.70;91.80;;;;;;4918924;29;20200;-61
2024/03/31 08:34:03;;;;;;;0.30;0.30;;;22.00;92.10;;;;;;4918912;29;20269;-61
2024/03/31 08:36:28;;;;;;;0.30;0.30;;;22.50;91.80;;;;;;4918395;29;20746;-65
2024/03/31 08:38:54;;;;;;;0.30;0.20;;;23.10;90.40;;;;;;4918664;29;20178;-64
2024/03/31 08:41:30;;;;;;;0.40;0.40;;;23.70;88.60;;;;;;4918934;29;20648;-63
2024/03/31 08:43:59;;;;;;;0.30;0.30;;;24.20;89.10;;;;;;4918693;29;20324;-63
2024/03/31 08:46:25;;;;;;;0.30;0.30;;;24.70;86.20;;;;;;4918485;29;20409;-62
2024/03/31 08:48:51;;;;;;;0.30;0.20;;;24.80;85.40;;;;;;4918682;29;20433;-61
2024/03/31 08:51:17;;;;;;;0.30;0.30;;;24.20;84.40;;;;;;4918754;29;20184;-62
2024/03/31 08:53:44;;;;;;;0.60;0.57;;;23.20;86.90;;;;;;4918821;29;20437;-61
2024/03/31 08:56:10;;;;;;;0.30;0.30;;;22.60;89.40;;;;;;4918195;29;20205;-60
2024/03/31 08:58:39;;;;;;;0.30;0.20;;;22.20;90.00;;;;;;4918527;29;20391;-61
2024/03/31 09:01:06;;;;;;;0.30;0.30;;;21.90;90.40;;;;;;4918485;29;20410;-63
2024/03/31 09:03:32;;;;;;;0.30;0.20;;;21.70;90.60;;;;;;4918519;29;20502;-62
2024/03/31 09:05:57;;;;;;;0.30;0.30;;;21.40;90.90;;;;;;4917914;29;20526;-59
2024/03/31 09:08:23;;;;;;;1.00;0.60;;;21.30;91.50;;;;;;4918141;29;20215;-64
2024/03/31 09:10:48;;;;;;;0.30;0.30;;;21.10;91.20;;;;;;4918332;29;20185;-59
2024/03/31 09:13:14;;;;;;;0.30;0.20;;;21.10;91.80;;;;;;4918529;29;20184;-60
2024/03/31 09:15:41;;;;;;;0.30;0.30;;;21.60;91.40;;;;;;4917968;29;20292;-63
2024/03/31 09:18:07;;;;;;;0.30;0.20;;;21.80;91.10;;;;;;4918175;29;20244;-64
2024/03/31 09:20:33;;;;;;;0.30;0.20;;;21.80;90.90;;;;;;4917886;29;20396;-61
2024/03/31 09:22:59;;;;;;;0.30;0.20;;;22.10;90.50;;;;;;4918214;29;20411;-62
2024/03/31 09:25:25;;;;;;;0.40;0.40;;;22.50;90.60;;;;;;4917694;29;20541;-63
2024/03/31 09:27:54;;;;;;;0.30;0.30;;;23.40;90.00;;;;;;4917900;29;20213;-61
2024/03/31 09:30:23;;;;;;;0.30;0.27;;;24.40;87.60;;;;;;4916747;29;20403;-62
2024/03/31 09:32:48;;;;;;;0.30;0.30;;;24.90;84.20;;;;;;4917929;29;20530;-61
2024/03/31 09:35:15;;;;;;;0.40;0.40;;;24.80;82.60;;;;;;4917322;29;20437;-61
2024/03/31 09:37:41;;;;;;;0.30;0.23;;;24.40;83.10;;;;;;4917792;29;20217;-64
2024/03/31 09:40:07;;;;;;;0.30;0.20;;;23.80;85.20;;;;;;4917635;29;20881;-64
2024/03/31 09:42:33;;;;;;;0.30;0.20;;;23.30;85.60;;;;;;4917622;29;20256;-61
2024/03/31 09:45:02;;;;;;;0.30;0.30;;;22.50;87.00;;;;;;4917424;29;20868;-59
2024/03/31 09:47:40;;;;;;;0.30;0.30;;;22.00;89.20;;;;;;4916149;29;20450;-62
2024/03/31 09:50:18;;;;;;;0.30;0.30;;;22.20;90.10;;;;;;4917522;29;20472;-62
2024/03/31 09:52:49;;;;;;;0.30;0.30;;;23.00;89.30;;;;;;4917579;29;20505;-63
2024/03/31 09:55:21;;;;;;;0.30;0.30;;;23.80;88.10;;;;;;4917292;29;20904;-61
2024/03/31 09:57:50;;;;;;;0.30;0.30;;;24.90;83.90;;;;;;4917543;29;20878;-61
2024/03/31 10:00:17;;;;;;;0.30;0.30;;;25.70;78.10;;;;;;4916038;29;20449;-62
2024/03/31 10:02:52;;;;;;;0.30;0.30;;;26.10;77.80;;;;;;4917759;29;20401;-62
2024/03/31 10:05:33;;;;;;;0.30;0.30;;;26.30;75.60;;;;;;4916950;29;20417;-64
2024/03/31 10:08:01;;;;;;;0.30;0.30;;;25.70;75.90;;;;;;4917108;29;20468;-63
2024/03/31 10:10:28;;;;;;;0.30;0.23;;;24.70;77.10;;;;;;4917331;29;20889;-62
2024/03/31 10:12:55;;;;;;;0.30;0.20;;;23.90;79.30;;;;;;4917129;29;20601;-63
2024/03/31 10:15:22;;;;;;;0.30;0.30;;;23.20;80.50;;;;;;4916890;29;20427;-62
2024/03/31 10:17:50;;;;;;;0.30;0.20;;;22.60;82.50;;;;;;4917032;29;20498;-59
2024/03/31 10:20:18;;;;;;;0.30;0.30;;;22.30;84.00;;;;;;4917017;29;20497;-61
2024/03/31 10:22:45;;;;;;;0.30;0.30;;;22.60;83.60;;;;;;4917080;29;20383;-64
2024/03/31 10:25:11;;;;;;;0.30;0.30;;;23.00;83.20;;;;;;4916763;29;20397;-60
2024/03/31 10:27:50;;;;;;;0.30;0.20;;;23.40;81.80;;;;;;4917065;29;20456;-62
2024/03/31 10:30:16;;;;;;;0.30;0.30;;;23.40;80.80;;;;;;4917126;29;20399;-63
2024/03/31 10:32:42;;;;;;;0.30;0.30;;;23.10;81.00;;;;;;4916522;29;20507;-64
2024/03/31 10:35:08;;;;;;;0.30;0.20;;;22.90;82.30;;;;;;4916672;29;20546;-64
2024/03/31 10:37:34;;;;;;;0.30;0.30;;;22.70;82.80;;;;;;4916901;29;20550;-60
2024/03/31 10:40:02;;;;;;;0.30;0.30;;;22.70;82.80;;;;;;4916758;29;20443;-63
2024/03/31 10:42:28;;;;;;;0.30;0.20;;;22.80;82.40;;;;;;4916988;29;20420;-64
2024/03/31 10:44:54;;;;;;;0.30;0.30;;;22.60;82.80;;;;;;4916659;29;20892;-64
2024/03/31 10:47:21;;;;;;;0.30;0.20;;;22.40;82.90;;;;;;4916773;29;20249;-61
2024/03/31 10:49:55;;;;;;;0.30;0.27;;;22.30;83.60;;;;;;4916938;29;20752;-64
2024/03/31 10:52:24;;;;;;;0.30;0.23;;;22.40;83.00;;;;;;4917069;29;20492;-61
2024/03/31 10:54:51;;;;;;;0.30;0.20;;;22.20;83.00;;;;;;4916473;29;20413;-65
2024/03/31 10:57:17;;;;;;;0.30;0.30;;;21.90;83.40;;;;;;4916815;29;20404;-63
2024/03/31 10:59:43;;;;;;;0.40;0.40;;;21.60;84.20;;;;;;4916753;29;20828;-63
2024/03/31 11:02:20;;;;;;;0.43;0.43;;;21.20;85.10;;;;;;4916721;29;20170;-64
2024/03/31 11:05:06;;;;;;;0.30;0.30;;;20.70;86.20;;;;;;4916265;29;20413;-62
2024/03/31 11:07:35;;;;;;;0.30;0.30;;;20.20;87.60;;;;;;4916539;29;20429;-61
2024/03/31 11:10:02;;;;;;;0.40;0.40;;;19.80;89.50;;;;;;4916881;29;20384;-61
2024/03/31 11:12:28;;;;;;;0.30;0.30;;;19.40;90.30;;;;;;4916718;29;20391;-60
2024/03/31 11:14:55;;;;;;;0.40;0.30;;;19.20;90.70;;;;;;4916088;29;20782;-61
2024/03/31 11:17:23;;;;;;;0.47;0.47;;;19.10;91.20;;;;;;4916446;29;20194;-61
2024/03/31 11:19:51;;;;;;;0.30;0.30;;;19.00;91.40;;;;;;4916644;29;20421;-61
2024/03/31 11:22:17;;;;;;;0.30;0.30;;;18.90;91.70;;;;;;4916638;29;20446;-62
2024/03/31 11:24:42;;;;;;;0.30;0.30;;;18.80;91.80;;;;;;4916201;29;20414;-62
2024/03/31 11:27:09;;;;;;;0.30;0.30;;;18.80;92.10;;;;;;4916435;29;20999;-61
2024/03/31 11:29:35;;;;;;;0.30;0.27;;;18.70;92.20;;;;;;4916565;29;20262;-61
2024/03/31 11:32:00;;;;;;;0.30;0.30;;;18.60;92.40;;;;;;4916410;29;20485;-63
2024/03/31 11:34:26;;;;;;;0.30;0.30;;;18.60;92.60;;;;;;4916589;29;20494;-60
2024/03/31 11:36:52;;;;;;;0.30;0.30;;;18.60;92.90;;;;;;4916134;29;20225;-62
2024/03/31 11:39:18;;;;;;;0.47;0.47;;;18.60;92.90;;;;;;4916712;29;20660;-60
2024/03/31 11:41:45;;;;;;;0.30;0.20;;;18.50;92.70;;;;;;4916516;29;20510;-63
2024/03/31 11:44:11;;;;;;;0.30;0.30;;;18.60;92.90;;;;;;4918478;29;20695;-63
2024/03/31 11:46:37;;;;;;;0.30;0.30;;;18.60;93.10;;;;;;4919397;29;20910;-61
2024/03/31 11:49:03;;;;;;;0.30;0.30;;;18.70;93.10;;;;;;4919896;29;20415;-61
2024/03/31 11:51:30;;;;;;;0.30;0.30;;;18.70;93.30;;;;;;4919885;29;20190;-62
2024/03/31 11:53:56;;;;;;;0.30;0.30;;;18.70;93.10;;;;;;4919662;29;20384;-63
2024/03/31 11:56:22;;;;;;;0.30;0.30;;;18.70;92.90;;;;;;4919137;29;20458;-60
2024/03/31 11:58:48;;;;;;;0.30;0.30;;;18.80;93.30;;;;;;4919857;29;20407;-61
2024/03/31 12:01:22;;;;;;;0.30;0.30;;;18.90;92.70;;;;;;4919488;29;20174;-60
2024/03/31 12:03:55;;;;;;;0.30;0.20;;;19.10;92.70;;;;;;4918297;29;20177;-62
2024/03/31 12:06:22;;;;;;;0.37;0.37;;;19.40;93.00;;;;;;4919227;29;20431;-63
2024/03/31 12:08:51;;;;;;;0.30;0.20;;;19.70;91.90;;;;;;4919275;29;20478;-63
2024/03/31 12:11:19;;;;;;;0.30;0.20;;;19.90;91.50;;;;;;4919453;29;20754;-60
2024/03/31 12:13:54;;;;;;;0.30;0.30;;;19.90;91.40;;;;;;4919504;29;20403;-63
2024/03/31 12:16:20;;;;;;;0.30;0.30;;;20.00;91.20;;;;;;4919017;29;20524;-61
2024/03/31 12:18:47;;;;;;;0.30;0.20;;;20.00;91.10;;;;;;4919241;29;20410;-61
2024/03/31 12:21:24;;;;;;;0.30;0.30;;;20.10;90.90;;;;;;4919289;29;20421;-58
2024/03/31 12:23:51;;;;;;;0.30;0.30;;;20.10;90.60;;;;;;4918832;29;20444;-61
2024/03/31 12:26:19;;;;;;;0.30;0.20;;;20.10;90.40;;;;;;4918700;29;20430;-62
2024/03/31 12:28:45;;;;;;;0.30;0.20;;;20.00;90.60;;;;;;4918982;29;20415;-60
2024/03/31 12:31:22;;;;;;;0.30;0.30;;;20.10;91.00;;;;;;4919275;29;20469;-60
2024/03/31 12:33:48;;;;;;;0.30;0.30;;;20.00;91.20;;;;;;4918987;29;20426;-69
2024/03/31 12:36:14;;;;;;;0.30;0.30;;;19.90;91.20;;;;;;4918510;29;20503;-61
2024/03/31 12:38:41;;;;;;;0.30;0.30;;;19.80;91.30;;;;;;4919006;29;20411;-64
2024/03/31 12:41:06;;;;;;;0.30;0.30;;;19.60;91.60;;;;;;4919151;29;20776;-62
2024/03/31 12:43:32;;;;;;;0.30;0.30;;;19.50;91.70;;;;;;4918852;29;20381;-61
2024/03/31 12:45:58;;;;;;;0.30;0.30;;;19.50;91.80;;;;;;4918711;29;20670;-61
2024/03/31 12:48:24;;;;;;;0.30;0.20;;;19.50;91.90;;;;;;4918875;29;20189;-62
2024/03/31 12:50:51;;;;;;;0.30;0.20;;;19.40;92.20;;;;;;4918697;29;20186;-62
2024/03/31 12:53:17;;;;;;;0.30;0.27;;;19.40;92.20;;;;;;4918699;29;20811;-63
2024/03/31 12:55:43;;;;;;;0.30;0.30;;;19.60;92.50;;;;;;4918061;29;20432;-60
2024/03/31 12:58:09;;;;;;;0.30;0.30;;;19.70;92.20;;;;;;4918510;29;20198;-64
2024/03/31 13:00:42;;;;;;;0.30;0.30;;;20.00;92.30;;;;;;4918506;29;20409;-63
2024/03/31 13:03:17;;;;;;;0.30;0.30;;;20.20;92.10;;;;;;4918507;29;20425;-61
2024/03/31 13:05:43;;;;;;;0.30;0.30;;;20.20;91.90;;;;;;4918440;29;20433;-62
2024/03/31 13:08:14;;;;;;;0.30;0.30;;;20.40;91.80;;;;;;4918115;29;20449;-63
2024/03/31 13:10:40;;;;;;;0.30;0.20;;;20.40;91.20;;;;;;4918512;29;20454;-60
2024/03/31 13:13:08;;;;;;;0.30;0.30;;;20.40;91.40;;;;;;4918597;29;20489;-63
2024/03/31 13:15:37;;;;;;;0.30;0.20;;;20.30;91.70;;;;;;4917994;29;20992;-61
2024/03/31 13:18:03;;;;;;;0.30;0.30;;;20.20;91.30;;;;;;4918113;29;20438;-61
2024/03/31 13:20:33;;;;;;;0.30;0.30;;;20.10;91.40;;;;;;4917143;29;20422;-62
2024/03/31 13:22:59;;;;;;;0.30;0.30;;;20.00;91.60;;;;;;4918239;29;20429;-62
2024/03/31 13:25:26;;;;;;;0.30;0.20;;;20.00;91.70;;;;;;4917852;29;20390;-61
2024/03/31 13:27:52;;;;;;;0.30;0.30;;;20.00;91.70;;;;;;4918200;29;20507;-61
2024/03/31 13:30:18;;;;;;;0.30;0.30;;;20.00;91.60;;;;;;4918363;29;20921;-63
2024/03/31 13:32:43;;;;;;;0.30;0.30;;;20.10;91.70;;;;;;4918187;29;20423;-62
2024/03/31 13:35:09;;;;;;;0.30;0.30;;;20.30;91.60;;;;;;4918866;29;20230;-61
2024/03/31 13:37:34;;;;;;;0.30;0.30;;;20.40;91.20;;;;;;4922866;29;20194;-60
2024/03/31 13:40:00;;;;;;;0.30;0.20;;;20.50;90.70;;;;;;4920434;29;20186;-62
2024/03/31 13:42:25;;;;;;;0.30;0.30;;;20.50;90.60;;;;;;4918230;29;20209;-61
2024/03/31 13:44:51;;;;;;;0.30;0.30;;;20.50;90.20;;;;;;4917511;29;20173;-62
2024/03/31 13:47:17;;;;;;;0.30;0.30;;;20.50;90.30;;;;;;4917411;29;20202;-62
2024/03/31 13:49:42;;;;;;;0.30;0.30;;;20.50;86.90;;;;;;4917582;29;20205;-62
2024/03/31 13:52:08;;;;;;;0.30;0.20;;;20.50;85.80;;;;;;4917704;29;20265;-61
2024/03/31 13:54:33;;;;;;;0.73;0.73;;;20.40;85.40;;;;;;4917290;29;20609;-63
2024/03/31 13:56:59;;;;;;;0.30;0.30;;;20.40;85.00;;;;;;4917232;29;20281;-60
2024/03/31 13:59:25;;;;;;;0.30;0.30;;;20.30;85.00;;;;;;4917394;29;20186;-61
2024/03/31 14:01:50;;;;;;;0.30;0.30;;;20.30;85.70;;;;;;4916980;29;20261;-61
2024/03/31 14:04:16;;;;;;;0.30;0.30;;;20.20;85.20;;;;;;4917031;29;20178;-61
2024/03/31 14:06:42;;;;;;;0.30;0.30;;;20.10;85.20;;;;;;4916106;29;20198;-61
2024/03/31 14:09:07;;;;;;;0.30;0.30;;;20.10;84.50;;;;;;4917191;29;20186;-62
2024/03/31 14:11:33;;;;;;;0.30;0.30;;;20.10;85.30;;;;;;4917243;29;20178;-62
2024/03/31 14:13:59;;;;;;;0.30;0.30;;;20.20;85.50;;;;;;4916893;29;20422;-59
2024/03/31 14:16:25;;;;;;;0.30;0.30;;;20.20;85.80;;;;;;4916584;29;20288;-62
2024/03/31 14:18:51;;;;;;;0.30;0.30;;;20.20;86.00;;;;;;4916963;29;20178;-61
2024/03/31 14:21:16;;;;;;;0.30;0.30;;;20.20;87.00;;;;;;4916988;29;20381;-62
2024/03/31 14:23:42;;;;;;;0.30;0.30;;;20.10;87.90;;;;;;4917027;29;20533;-61
2024/03/31 14:26:10;;;;;;;0.30;0.30;;;20.10;87.70;;;;;;4916597;29;20189;-61
2024/03/31 14:28:36;;;;;;;0.30;0.30;;;20.10;86.80;;;;;;4916988;29;20206;-61
2024/03/31 14:31:03;;;;;;;0.30;0.30;;;20.10;87.20;;;;;;4916909;29;20411;-64
2024/03/31 14:33:29;;;;;;;0.30;0.30;;;20.20;87.00;;;;;;4917014;29;20418;-63
2024/03/31 14:35:54;;;;;;;0.40;0.40;;;20.20;86.60;;;;;;4916643;29;20832;-63
2024/03/31 14:38:20;;;;;;;0.30;0.30;;;20.20;86.50;;;;;;4916968;29;20403;-61
2024/03/31 14:40:46;;;;;;;0.43;0.43;;;20.20;86.60;;;;;;4917010;29;20214;-63
2024/03/31 14:43:11;;;;;;;0.30;0.20;;;20.30;86.50;;;;;;4916740;29;20269;-62
2024/03/31 14:45:37;;;;;;;0.30;0.30;;;20.20;85.80;;;;;;4916745;29;20170;-59
2024/03/31 14:48:03;;;;;;;0.30;0.30;;;20.20;85.30;;;;;;4916855;29;20285;-61
2024/03/31 14:50:30;;;;;;;0.30;0.30;;;20.20;85.70;;;;;;4916889;29;20189;-62
2024/03/31 14:52:57;;;;;;;0.30;0.30;;;20.20;86.30;;;;;;4916819;29;20762;-60
2024/03/31 14:55:23;;;;;;;1.53;1.43;;;20.30;86.30;;;;;;4916538;29;20446;-62
2024/03/31 14:57:49;;;;;;;0.30;0.30;;;20.30;85.20;;;;;;4916673;29;20506;-60
2024/03/31 15:00:16;;;;;;;0.70;0.37;;;20.30;85.30;;;;;;4916789;29;20453;-62
2024/03/31 15:02:48;;;;;;;0.30;0.30;;;20.30;85.60;;;;;;4915808;29;20201;-62
2024/03/31 15:05:14;;;;;;;0.30;0.20;;;20.40;84.00;;;;;;4916479;29;20433;-60
2024/03/31 15:07:40;;;;;;;0.30;0.30;;;20.30;84.50;;;;;;4916353;29;20458;-63
2024/03/31 15:10:06;;;;;;;0.30;0.30;;;20.40;85.00;;;;;;4916753;29;20414;-64
2024/03/31 15:12:32;;;;;;;0.30;0.30;;;20.30;83.70;;;;;;4916659;29;20396;-62
2024/03/31 15:14:57;;;;;;;0.33;0.33;;;20.30;84.20;;;;;;4916063;29;20414;-61
2024/03/31 15:17:23;;;;;;;0.30;0.30;;;20.30;84.80;;;;;;4917322;29;20205;-60
2024/03/31 15:19:49;;;;;;;0.30;0.20;;;20.30;84.50;;;;;;4920346;29;20651;-61
2024/03/31 15:22:15;;;;;;;0.30;0.30;;;20.30;84.80;;;;;;4920400;29;20732;-63
2024/03/31 15:24:40;;;;;;;0.30;0.30;;;20.30;85.30;;;;;;4920238;29;20286;-61
2024/03/31 15:27:06;;;;;;;0.30;0.30;;;20.30;85.60;;;;;;4919932;29;20517;-61
2024/03/31 15:29:31;;;;;;;0.30;0.20;;;20.30;85.20;;;;;;4918763;29;20175;-60
2024/03/31 15:31:57;;;;;;;0.60;0.33;;;20.30;85.00;;;;;;4919955;29;20176;-60
2024/03/31 15:34:24;;;;;;;0.30;0.30;;;20.30;84.70;;;;;;4919892;29;20704;-59
2024/03/31 15:36:50;;;;;;;0.40;0.33;;;20.30;84.70;;;;;;4919689;29;20238;-63
2024/03/31 15:39:16;;;;;;;0.30;0.30;;;20.30;84.50;;;;;;4919866;29;20951;-63
2024/03/31 15:41:42;;;;;;;0.30;0.30;;;20.40;84.40;;;;;;4919636;29;20414;-61
2024/03/31 15:44:07;;;;;;;0.30;0.20;;;20.40;83.50;;;;;;4919782;29;20173;-63
2024/03/31 15:46:33;;;;;;;0.30;0.30;;;20.50;83.40;;;;;;4917889;29;20197;-63
2024/03/31 15:48:58;;;;;;;0.30;0.30;;;20.50;83.20;;;;;;4919963;29;20652;-60
2024/03/31 15:51:24;;;;;;;0.30;0.30;;;20.60;83.20;;;;;;4919879;29;20181;-61
2024/03/31 15:53:49;;;;;;;0.30;0.30;;;20.70;83.30;;;;;;4919901;29;20178;-59
2024/03/31 15:56:15;;;;;;;0.30;0.30;;;20.70;83.30;;;;;;4919196;29;20207;-61
2024/03/31 15:58:41;;;;;;;0.30;0.30;;;20.70;83.70;;;;;;4920007;29;20170;-63
2024/03/31 16:01:06;;;;;;;0.30;0.30;;;20.70;83.60;;;;;;4919671;29;20184;-59
2024/03/31 16:03:32;;;;;;;0.30;0.30;;;20.70;83.70;;;;;;4919627;29;20178;-60
2024/03/31 16:05:57;;;;;;;0.30;0.27;;;20.70;84.10;;;;;;4919118;29;20195;-61
2024/03/31 16:08:23;;;;;;;0.30;0.23;;;20.70;84.80;;;;;;4919633;29;20277;-61
2024/03/31 16:10:49;;;;;;;0.30;0.20;;;20.60;84.40;;;;;;4919590;29;20170;-60
2024/03/31 16:13:15;;;;;;;0.30;0.30;;;20.60;84.60;;;;;;4919555;29;20182;-63
2024/03/31 16:15:40;;;;;;;0.30;0.30;;;20.60;84.70;;;;;;4918962;29;20530;-61
2024/03/31 16:18:06;;;;;;;0.30;0.20;;;20.60;85.10;;;;;;4919375;29;20191;-61
2024/03/31 16:20:32;;;;;;;0.30;0.30;;;20.60;85.40;;;;;;4917978;29;20174;-63
2024/03/31 16:22:57;;;;;;;0.40;0.30;;;20.50;85.30;;;;;;4919361;29;20668;-62
2024/03/31 16:25:24;;;;;;;0.30;0.30;;;20.40;86.20;;;;;;4918887;29;20192;-62
2024/03/31 16:27:49;;;;;;;0.30;0.30;;;20.30;86.80;;;;;;4919198;29;20202;-61
2024/03/31 16:30:15;;;;;;;0.30;0.30;;;20.20;87.90;;;;;;4918542;29;20981;-63
2024/03/31 16:32:41;;;;;;;0.30;0.30;;;20.00;88.80;;;;;;4919216;29;20262;-62
2024/03/31 16:35:06;;;;;;;0.30;0.30;;;19.90;89.30;;;;;;4918851;29;20425;-61
2024/03/31 16:37:32;;;;;;;0.30;0.20;;;19.90;89.60;;;;;;4918944;29;20285;-60
2024/03/31 16:39:59;;;;;;;0.53;0.53;;;19.70;90.30;;;;;;4915261;29;20173;-62
2024/03/31 16:42:26;;;;;;;0.30;0.20;;;19.50;90.70;;;;;;4908845;29;20167;-63
2024/03/31 16:44:52;;;;;;;0.87;0.87;;;19.40;91.00;;;;;;4912359;29;20410;-72
2024/03/31 16:47:18;;;;;;;0.40;0.40;;;19.30;91.30;;;;;;4913051;29;20409;-72
2024/03/31 16:49:44;;;;;;;0.30;0.30;;;19.20;91.40;;;;;;4918881;29;20414;-72
2024/03/31 16:52:09;;;;;;;0.30;0.30;;;19.20;91.70;;;;;;4918841;29;20943;-69
2024/03/31 16:54:35;;;;;;;0.30;0.27;;;19.00;92.20;;;;;;4913059;29;20210;-73
2024/03/31 16:57:01;;;;;;;0.30;0.30;;;19.00;91.90;;;;;;4899351;29;20673;-69
2024/03/31 16:59:26;;;;;;;0.40;0.40;;;19.00;92.20;;;;;;4907452;29;20186;-64
2024/03/31 17:01:52;;;;;;;0.40;0.40;;;18.90;92.20;;;;;;4907868;29;20179;-68
2024/03/31 17:04:17;;;;;;;0.30;0.20;;;18.90;92.60;;;;;;4916841;29;20186;-71
2024/03/31 17:06:43;;;;;;;0.30;0.30;;;18.80;92.80;;;;;;4917578;29;20232;-69
2024/03/31 17:09:10;;;;;;;0.30;0.30;;;18.70;93.00;;;;;;4918056;29;20289;-69
2024/03/31 17:11:43;;;;;;;0.30;0.30;;;18.60;93.30;;;;;;4915901;29;20182;-69
2024/03/31 17:14:08;;;;;;;0.30;0.30;;;18.60;93.20;;;;;;4899247;29;20817;-68
2024/03/31 17:16:35;;;;;;;0.30;0.20;;;18.60;93.30;;;;;;4899009;29;20571;-66
2024/03/31 17:19:00;;;;;;;0.30;0.30;;;18.50;93.20;;;;;;4899510;29;20175;-71
2024/03/31 17:21:26;;;;;;;0.30;0.30;;;18.40;93.30;;;;;;4901129;29;20433;-72
2024/03/31 17:23:53;;;;;;;0.30;0.30;;;18.40;93.40;;;;;;4904230;29;20265;-73
2024/03/31 17:26:18;;;;;;;0.33;0.33;;;18.30;93.70;;;;;;4898700;29;20194;-69
2024/03/31 17:28:44;;;;;;;0.30;0.30;;;18.30;93.90;;;;;;4900072;29;20475;-70
2024/03/31 17:31:09;;;;;;;0.30;0.30;;;18.20;93.90;;;;;;4907158;29;20185;-65
2024/03/31 17:33:35;;;;;;;0.40;0.40;;;18.10;93.90;;;;;;4917765;29;20636;-63
2024/03/31 17:36:01;;;;;;;1.07;1.07;;;18.10;94.00;;;;;;4916914;29;20700;-63
2024/03/31 17:38:27;;;;;;;0.73;0.73;;;18.00;94.90;;;;;;4917202;29;20185;-61
2024/03/31 17:41:04;;;;;;;0.40;0.40;;;17.90;95.40;;;;;;4898885;29;20184;-65
2024/03/31 17:43:31;;;;;;;0.30;0.30;;;17.70;95.50;;;;;;4912789;29;20798;-60
2024/03/31 17:46:07;;;;;;;0.30;0.30;;;17.70;95.50;;;;;;4915820;29;20389;-61
2024/03/31 17:48:34;;;;;;;0.30;0.30;;;17.60;95.40;;;;;;4917648;29;20426;-63
2024/03/31 17:51:10;;;;;;;0.30;0.30;;;17.50;95.40;;;;;;4910294;29;20692;-61